< < Back
Terminal Aerodrome Forecast


Current Version              Previous Versions:   1  2  3  4  5  6  7  8  9  

Terminal Aerodrome Forecast

110
FTUS42 KJAX 262326
TAFJAX
TAF
KJAX 262326Z 2700/2724 VRB06KT P6SM VCTS BKN040CB BKN250
      TEMPO 2700/2701 VRB12G22KT 4SM TSRA OVC040CB
     FM270100 20003KT P6SM FEW040 SCT250
     FM271400 23005KT P6SM SCT030
     FM271900 17009KT P6SM SCT050=



Latest METAR

639
SAUS80 KWBC 270700
MTRJAX
METAR KJAX 270656Z 28003KT 10SM FEW040 SCT130 24/24 A3007 RMK AO2 SLP182
T02390239


USA.gov is the U.S. government's official web portal to all federal, state and local government web resources and services.